sensor_id;sensor_type;location;lat;lon;timestamp;temperature;humidity
22558;DHT22;11445;53.816;8.902;2023-04-03T00:00:30;2.90;99.90
22558;DHT22;11445;53.816;8.902;2023-04-03T00:02:58;2.90;99.90
22558;DHT22;11445;53.816;8.902;2023-04-03T00:05:25;2.80;99.90
22558;DHT22;11445;53.816;8.902;2023-04-03T00:07:52;2.80;99.90
22558;DHT22;11445;53.816;8.902;2023-04-03T00:10:20;2.80;99.90
22558;DHT22;11445;53.816;8.902;2023-04-03T00:12:47;2.70;99.90
22558;DHT22;11445;53.816;8.902;2023-04-03T00:15:15;2.60;99.90
22558;DHT22;11445;53.816;8.902;2023-04-03T00:17:42;2.60;99.90
22558;DHT22;11445;53.816;8.902;2023-04-03T00:20:09;2.60;99.90
22558;DHT22;11445;53.816;8.902;2023-04-03T00:22:36;2.60;99.90
22558;DHT22;11445;53.816;8.902;2023-04-03T00:25:04;2.60;99.90
22558;DHT22;11445;53.816;8.902;2023-04-03T00:27:33;2.60;99.90
22558;DHT22;11445;53.816;8.902;2023-04-03T00:30:00;2.60;99.90
22558;DHT22;11445;53.816;8.902;2023-04-03T00:32:27;2.60;99.90
22558;DHT22;11445;53.816;8.902;2023-04-03T00:34:54;2.60;99.90
22558;DHT22;11445;53.816;8.902;2023-04-03T00:37:21;2.60;99.90
22558;DHT22;11445;53.816;8.902;2023-04-03T00:39:48;2.60;99.90
22558;DHT22;11445;53.816;8.902;2023-04-03T00:42:16;2.60;99.90
22558;DHT22;11445;53.816;8.902;2023-04-03T00:47:49;2.60;99.90
22558;DHT22;11445;53.816;8.902;2023-04-03T00:50:17;2.60;99.90
22558;DHT22;11445;53.816;8.902;2023-04-03T00:52:44;2.50;99.90
22558;DHT22;11445;53.816;8.902;2023-04-03T00:55:15;2.50;99.90
22558;DHT22;11445;53.816;8.902;2023-04-03T00:57:43;2.50;99.90
22558;DHT22;11445;53.816;8.902;2023-04-03T01:00:14;2.50;99.90
22558;DHT22;11445;53.816;8.902;2023-04-03T01:02:43;2.40;99.90
22558;DHT22;11445;53.816;8.902;2023-04-03T01:05:12;2.50;99.90
22558;DHT22;11445;53.816;8.902;2023-04-03T01:07:40;2.50;99.90
22558;DHT22;11445;53.816;8.902;2023-04-03T01:10:09;2.50;99.90
22558;DHT22;11445;53.816;8.902;2023-04-03T01:12:39;2.50;99.90
22558;DHT22;11445;53.816;8.902;2023-04-03T01:15:09;2.50;99.90
22558;DHT22;11445;53.816;8.902;2023-04-03T01:17:38;2.50;99.90
22558;DHT22;11445;53.816;8.902;2023-04-03T01:23:12;2.50;99.90
22558;DHT22;11445;53.816;8.902;2023-04-03T01:25:44;2.50;99.90
22558;DHT22;11445;53.816;8.902;2023-04-03T01:28:14;2.50;99.90
22558;DHT22;11445;53.816;8.902;2023-04-03T01:30:45;2.50;99.90
22558;DHT22;11445;53.816;8.902;2023-04-03T01:33:15;2.40;99.90
22558;DHT22;11445;53.816;8.902;2023-04-03T01:35:42;2.40;99.90
22558;DHT22;11445;53.816;8.902;2023-04-03T01:38:09;2.40;99.90
22558;DHT22;11445;53.816;8.902;2023-04-03T01:40:37;2.40;99.90
22558;DHT22;11445;53.816;8.902;2023-04-03T01:43:04;2.30;99.90
22558;DHT22;11445;53.816;8.902;2023-04-03T01:45:31;2.30;99.90
22558;DHT22;11445;53.816;8.902;2023-04-03T01:47:58;2.30;99.90
22558;DHT22;11445;53.816;8.902;2023-04-03T01:50:26;2.20;99.90
22558;DHT22;11445;53.816;8.902;2023-04-03T01:52:53;2.30;99.90
22558;DHT22;11445;53.816;8.902;2023-04-03T01:55:20;2.20;99.90
22558;DHT22;11445;53.816;8.902;2023-04-03T01:57:47;2.30;99.90
22558;DHT22;11445;53.816;8.902;2023-04-03T02:00:15;2.20;99.90
22558;DHT22;11445;53.816;8.902;2023-04-03T02:02:42;2.20;99.90
22558;DHT22;11445;53.816;8.902;2023-04-03T02:05:09;2.20;99.90
22558;DHT22;11445;53.816;8.902;2023-04-03T02:07:38;2.20;99.90
22558;DHT22;11445;53.816;8.902;2023-04-03T02:10:05;2.10;99.90
22558;DHT22;11445;53.816;8.902;2023-04-03T02:12:33;2.10;99.90
22558;DHT22;11445;53.816;8.902;2023-04-03T02:15:00;2.10;99.90
22558;DHT22;11445;53.816;8.902;2023-04-03T02:17:27;2.00;99.90
22558;DHT22;11445;53.816;8.902;2023-04-03T02:19:54;2.00;99.90
22558;DHT22;11445;53.816;8.902;2023-04-03T02:22:21;2.00;99.90
22558;DHT22;11445;53.816;8.902;2023-04-03T02:24:49;1.90;99.90
22558;DHT22;11445;53.816;8.902;2023-04-03T02:27:17;1.90;99.90
22558;DHT22;11445;53.816;8.902;2023-04-03T02:29:44;1.90;99.90
22558;DHT22;11445;53.816;8.902;2023-04-03T02:32:11;1.90;99.90
22558;DHT22;11445;53.816;8.902;2023-04-03T02:34:38;1.90;99.90
22558;DHT22;11445;53.816;8.902;2023-04-03T02:37:05;1.90;99.90
22558;DHT22;11445;53.816;8.902;2023-04-03T02:39:32;1.90;99.90
22558;DHT22;11445;53.816;8.902;2023-04-03T02:42:01;1.90;99.90
22558;DHT22;11445;53.816;8.902;2023-04-03T02:44:28;1.90;99.90
22558;DHT22;11445;53.816;8.902;2023-04-03T02:46:55;1.80;99.90
22558;DHT22;11445;53.816;8.902;2023-04-03T02:49:22;1.80;99.90
22558;DHT22;11445;53.816;8.902;2023-04-03T02:51:49;1.80;99.90
22558;DHT22;11445;53.816;8.902;2023-04-03T02:54:16;1.80;99.90
22558;DHT22;11445;53.816;8.902;2023-04-03T02:56:43;1.80;99.90
22558;DHT22;11445;53.816;8.902;2023-04-03T02:59:11;1.80;99.90
22558;DHT22;11445;53.816;8.902;2023-04-03T03:01:38;1.70;99.90
22558;DHT22;11445;53.816;8.902;2023-04-03T03:04:05;1.70;99.90
22558;DHT22;11445;53.816;8.902;2023-04-03T03:06:32;1.70;99.90
22558;DHT22;11445;53.816;8.902;2023-04-03T03:09:00;1.70;99.90
22558;DHT22;11445;53.816;8.902;2023-04-03T03:11:27;1.70;99.90
22558;DHT22;11445;53.816;8.902;2023-04-03T03:13:54;1.60;99.90
22558;DHT22;11445;53.816;8.902;2023-04-03T03:16:23;1.60;99.90
22558;DHT22;11445;53.816;8.902;2023-04-03T03:18:50;1.60;99.90
22558;DHT22;11445;53.816;8.902;2023-04-03T03:21:17;1.60;99.90
22558;DHT22;11445;53.816;8.902;2023-04-03T03:23:44;1.60;99.90
22558;DHT22;11445;53.816;8.902;2023-04-03T03:26:11;1.60;99.90
22558;DHT22;11445;53.816;8.902;2023-04-03T03:28:39;1.60;99.90
22558;DHT22;11445;53.816;8.902;2023-04-03T03:31:07;1.60;99.90
22558;DHT22;11445;53.816;8.902;2023-04-03T03:33:35;1.50;99.90
22558;DHT22;11445;53.816;8.902;2023-04-03T03:36:03;1.50;99.90
22558;DHT22;11445;53.816;8.902;2023-04-03T03:38:30;1.50;99.90
22558;DHT22;11445;53.816;8.902;2023-04-03T03:40:57;1.50;99.90
22558;DHT22;11445;53.816;8.902;2023-04-03T03:43:24;1.50;99.90
22558;DHT22;11445;53.816;8.902;2023-04-03T03:45:51;1.50;99.90
22558;DHT22;11445;53.816;8.902;2023-04-03T03:48:19;1.50;99.90
22558;DHT22;11445;53.816;8.902;2023-04-03T03:50:48;1.50;99.90
22558;DHT22;11445;53.816;8.902;2023-04-03T03:53:15;1.40;99.90
22558;DHT22;11445;53.816;8.902;2023-04-03T03:55:42;1.40;99.90
22558;DHT22;11445;53.816;8.902;2023-04-03T03:58:09;1.40;99.90
22558;DHT22;11445;53.816;8.902;2023-04-03T04:00:36;1.40;99.90
22558;DHT22;11445;53.816;8.902;2023-04-03T04:03:03;1.40;99.90
22558;DHT22;11445;53.816;8.902;2023-04-03T04:05:30;1.40;99.90
22558;DHT22;11445;53.816;8.902;2023-04-03T04:07:59;1.40;99.90
22558;DHT22;11445;53.816;8.902;2023-04-03T04:10:26;1.40;99.90
22558;DHT22;11445;53.816;8.902;2023-04-03T04:12:53;1.40;99.90
22558;DHT22;11445;53.816;8.902;2023-04-03T04:15:20;1.40;99.90
22558;DHT22;11445;53.816;8.902;2023-04-03T04:17:48;1.40;99.90
22558;DHT22;11445;53.816;8.902;2023-04-03T04:20:15;1.30;99.90
22558;DHT22;11445;53.816;8.902;2023-04-03T04:22:42;1.30;99.90
22558;DHT22;11445;53.816;8.902;2023-04-03T04:25:11;1.20;99.90
22558;DHT22;11445;53.816;8.902;2023-04-03T04:27:38;1.20;99.90
22558;DHT22;11445;53.816;8.902;2023-04-03T04:30:06;1.20;99.90
22558;DHT22;11445;53.816;8.902;2023-04-03T04:32:33;1.20;99.90
22558;DHT22;11445;53.816;8.902;2023-04-03T04:35:01;1.20;99.90
22558;DHT22;11445;53.816;8.902;2023-04-03T04:37:28;1.20;99.90
22558;DHT22;11445;53.816;8.902;2023-04-03T04:39:55;1.20;99.90
22558;DHT22;11445;53.816;8.902;2023-04-03T04:42:24;1.20;99.90
22558;DHT22;11445;53.816;8.902;2023-04-03T04:44:51;1.20;99.90
22558;DHT22;11445;53.816;8.902;2023-04-03T04:47:18;1.20;99.90
22558;DHT22;11445;53.816;8.902;2023-04-03T04:49:45;1.20;99.90
22558;DHT22;11445;53.816;8.902;2023-04-03T04:52:13;1.20;99.90
22558;DHT22;11445;53.816;8.902;2023-04-03T04:54:40;1.20;99.90
22558;DHT22;11445;53.816;8.902;2023-04-03T04:57:07;1.10;99.90
22558;DHT22;11445;53.816;8.902;2023-04-03T04:59:37;1.10;99.90
22558;DHT22;11445;53.816;8.902;2023-04-03T05:02:04;1.10;99.90
22558;DHT22;11445;53.816;8.902;2023-04-03T05:04:31;1.00;99.90
22558;DHT22;11445;53.816;8.902;2023-04-03T05:06:58;1.00;99.90
22558;DHT22;11445;53.816;8.902;2023-04-03T05:09:26;1.00;99.90
22558;DHT22;11445;53.816;8.902;2023-04-03T05:11:53;1.10;99.90
22558;DHT22;11445;53.816;8.902;2023-04-03T05:14:21;1.10;99.90
22558;DHT22;11445;53.816;8.902;2023-04-03T05:16:50;1.10;99.90
22558;DHT22;11445;53.816;8.902;2023-04-03T05:19:19;1.20;99.90
22558;DHT22;11445;53.816;8.902;2023-04-03T05:21:46;1.20;99.90
22558;DHT22;11445;53.816;8.902;2023-04-03T05:24:14;1.20;99.90
22558;DHT22;11445;53.816;8.902;2023-04-03T05:26:41;1.20;99.90
22558;DHT22;11445;53.816;8.902;2023-04-03T05:29:08;1.20;99.90
22558;DHT22;11445;53.816;8.902;2023-04-03T05:31:36;1.20;99.90
22558;DHT22;11445;53.816;8.902;2023-04-03T05:34:04;1.30;99.90
22558;DHT22;11445;53.816;8.902;2023-04-03T05:36:31;1.30;99.90
22558;DHT22;11445;53.816;8.902;2023-04-03T05:38:58;1.30;99.90
22558;DHT22;11445;53.816;8.902;2023-04-03T05:41:26;1.40;99.90
22558;DHT22;11445;53.816;8.902;2023-04-03T05:43:53;1.40;99.90
22558;DHT22;11445;53.816;8.902;2023-04-03T05:46:20;1.40;99.90
22558;DHT22;11445;53.816;8.902;2023-04-03T05:48:47;1.50;99.90
22558;DHT22;11445;53.816;8.902;2023-04-03T05:51:17;1.60;99.90
22558;DHT22;11445;53.816;8.902;2023-04-03T05:53:45;1.60;99.90
22558;DHT22;11445;53.816;8.902;2023-04-03T05:56:13;1.60;99.90
22558;DHT22;11445;53.816;8.902;2023-04-03T05:58:41;1.70;99.90
22558;DHT22;11445;53.816;8.902;2023-04-03T06:01:08;1.70;99.90
22558;DHT22;11445;53.816;8.902;2023-04-03T06:03:35;1.80;99.90
22558;DHT22;11445;53.816;8.902;2023-04-03T06:06:04;1.90;99.90
22558;DHT22;11445;53.816;8.902;2023-04-03T06:08:32;2.00;99.90
22558;DHT22;11445;53.816;8.902;2023-04-03T06:11:00;2.10;99.90
22558;DHT22;11445;53.816;8.902;2023-04-03T06:13:28;2.20;99.90
22558;DHT22;11445;53.816;8.902;2023-04-03T06:15:55;2.30;99.90
22558;DHT22;11445;53.816;8.902;2023-04-03T06:18:22;2.40;99.90
22558;DHT22;11445;53.816;8.902;2023-04-03T06:20:50;2.40;99.90
22558;DHT22;11445;53.816;8.902;2023-04-03T06:23:17;2.50;99.90
22558;DHT22;11445;53.816;8.902;2023-04-03T06:25:45;2.60;99.90
22558;DHT22;11445;53.816;8.902;2023-04-03T06:28:12;2.70;99.90
22558;DHT22;11445;53.816;8.902;2023-04-03T06:30:40;2.80;99.90
22558;DHT22;11445;53.816;8.902;2023-04-03T06:33:07;2.90;99.90
22558;DHT22;11445;53.816;8.902;2023-04-03T06:35:34;2.90;99.90
22558;DHT22;11445;53.816;8.902;2023-04-03T06:38:02;3.00;99.90
22558;DHT22;11445;53.816;8.902;2023-04-03T06:40:35;3.00;99.90
22558;DHT22;11445;53.816;8.902;2023-04-03T06:43:03;3.10;99.90
22558;DHT22;11445;53.816;8.902;2023-04-03T06:45:30;3.10;99.90
22558;DHT22;11445;53.816;8.902;2023-04-03T06:47:57;3.10;99.90
22558;DHT22;11445;53.816;8.902;2023-04-03T06:50:25;3.20;99.90
22558;DHT22;11445;53.816;8.902;2023-04-03T06:52:52;3.30;99.90
22558;DHT22;11445;53.816;8.902;2023-04-03T06:55:20;3.30;99.90
22558;DHT22;11445;53.816;8.902;2023-04-03T06:57:47;3.30;99.90
22558;DHT22;11445;53.816;8.902;2023-04-03T07:00:16;3.30;99.90
22558;DHT22;11445;53.816;8.902;2023-04-03T07:02:46;3.30;99.90
22558;DHT22;11445;53.816;8.902;2023-04-03T07:05:13;3.30;99.90
22558;DHT22;11445;53.816;8.902;2023-04-03T07:07:41;3.30;99.90
22558;DHT22;11445;53.816;8.902;2023-04-03T07:10:08;3.40;99.90
22558;DHT22;11445;53.816;8.902;2023-04-03T07:12:36;3.40;99.90
22558;DHT22;11445;53.816;8.902;2023-04-03T07:15:04;3.50;99.90
22558;DHT22;11445;53.816;8.902;2023-04-03T07:17:32;3.60;99.90
22558;DHT22;11445;53.816;8.902;2023-04-03T07:20:00;3.70;99.90
22558;DHT22;11445;53.816;8.902;2023-04-03T07:22:27;3.80;99.90
22558;DHT22;11445;53.816;8.902;2023-04-03T07:24:54;3.80;99.90
22558;DHT22;11445;53.816;8.902;2023-04-03T07:27:21;3.90;99.90
22558;DHT22;11445;53.816;8.902;2023-04-03T07:29:48;4.00;99.90
22558;DHT22;11445;53.816;8.902;2023-04-03T07:32:15;4.10;99.90
22558;DHT22;11445;53.816;8.902;2023-04-03T07:34:44;4.10;99.90
22558;DHT22;11445;53.816;8.902;2023-04-03T07:37:11;4.10;99.90
22558;DHT22;11445;53.816;8.902;2023-04-03T07:39:38;4.20;99.90
22558;DHT22;11445;53.816;8.902;2023-04-03T07:42:06;4.20;99.90
22558;DHT22;11445;53.816;8.902;2023-04-03T07:44:33;4.30;99.90
22558;DHT22;11445;53.816;8.902;2023-04-03T07:47:01;4.40;99.90
22558;DHT22;11445;53.816;8.902;2023-04-03T07:49:28;4.40;99.90
22558;DHT22;11445;53.816;8.902;2023-04-03T07:51:56;4.50;99.90
22558;DHT22;11445;53.816;8.902;2023-04-03T07:54:24;4.60;99.90
22558;DHT22;11445;53.816;8.902;2023-04-03T07:56:51;4.70;99.90
22558;DHT22;11445;53.816;8.902;2023-04-03T07:59:18;4.60;99.90
22558;DHT22;11445;53.816;8.902;2023-04-03T08:01:45;4.70;99.90
22558;DHT22;11445;53.816;8.902;2023-04-03T08:04:12;4.80;99.90
22558;DHT22;11445;53.816;8.902;2023-04-03T08:06:40;4.70;99.90
22558;DHT22;11445;53.816;8.902;2023-04-03T08:09:08;4.70;99.90
22558;DHT22;11445;53.816;8.902;2023-04-03T08:11:36;4.70;99.90
22558;DHT22;11445;53.816;8.902;2023-04-03T08:14:05;4.70;99.90
22558;DHT22;11445;53.816;8.902;2023-04-03T08:16:32;4.70;99.90
22558;DHT22;11445;53.816;8.902;2023-04-03T08:18:59;4.70;99.90
22558;DHT22;11445;53.816;8.902;2023-04-03T08:21:26;4.70;99.90
22558;DHT22;11445;53.816;8.902;2023-04-03T08:23:53;4.80;99.90
22558;DHT22;11445;53.816;8.902;2023-04-03T08:26:22;4.90;99.90
22558;DHT22;11445;53.816;8.902;2023-04-03T08:28:49;5.00;99.90
22558;DHT22;11445;53.816;8.902;2023-04-03T08:31:18;5.30;99.90
22558;DHT22;11445;53.816;8.902;2023-04-03T08:33:46;5.50;99.90
22558;DHT22;11445;53.816;8.902;2023-04-03T08:36:18;5.80;99.90
22558;DHT22;11445;53.816;8.902;2023-04-03T08:38:46;6.40;99.90
22558;DHT22;11445;53.816;8.902;2023-04-03T08:41:16;6.90;99.90
22558;DHT22;11445;53.816;8.902;2023-04-03T08:43:56;7.10;99.90
22558;DHT22;11445;53.816;8.902;2023-04-03T08:46:36;7.10;99.90
22558;DHT22;11445;53.816;8.902;2023-04-03T08:49:10;7.00;99.90
22558;DHT22;11445;53.816;8.902;2023-04-03T08:51:46;6.80;99.90
22558;DHT22;11445;53.816;8.902;2023-04-03T08:54:25;6.70;99.90
22558;DHT22;11445;53.816;8.902;2023-04-03T08:56:55;6.50;99.90
22558;DHT22;11445;53.816;8.902;2023-04-03T08:59:28;6.30;99.90
22558;DHT22;11445;53.816;8.902;2023-04-03T09:01:58;6.30;99.90
22558;DHT22;11445;53.816;8.902;2023-04-03T09:04:28;6.20;99.90
22558;DHT22;11445;53.816;8.902;2023-04-03T09:07:03;6.20;99.90
22558;DHT22;11445;53.816;8.902;2023-04-03T09:09:33;6.30;99.90
22558;DHT22;11445;53.816;8.902;2023-04-03T09:12:10;6.40;99.90
22558;DHT22;11445;53.816;8.902;2023-04-03T09:14:46;6.40;99.90
22558;DHT22;11445;53.816;8.902;2023-04-03T09:17:22;6.40;99.90
22558;DHT22;11445;53.816;8.902;2023-04-03T09:19:57;6.50;99.90
22558;DHT22;11445;53.816;8.902;2023-04-03T09:22:27;6.50;99.90
22558;DHT22;11445;53.816;8.902;2023-04-03T09:24:58;6.40;99.90
22558;DHT22;11445;53.816;8.902;2023-04-03T09:27:26;6.40;99.90
22558;DHT22;11445;53.816;8.902;2023-04-03T09:29:56;6.40;99.90
22558;DHT22;11445;53.816;8.902;2023-04-03T09:32:27;6.40;99.90
22558;DHT22;11445;53.816;8.902;2023-04-03T09:34:57;6.40;99.90
22558;DHT22;11445;53.816;8.902;2023-04-03T09:37:36;6.40;99.90
22558;DHT22;11445;53.816;8.902;2023-04-03T09:40:05;6.50;99.90
22558;DHT22;11445;53.816;8.902;2023-04-03T09:42:34;6.50;99.90
22558;DHT22;11445;53.816;8.902;2023-04-03T09:45:22;6.60;99.90
22558;DHT22;11445;53.816;8.902;2023-04-03T09:48:04;6.60;99.90
22558;DHT22;11445;53.816;8.902;2023-04-03T09:50:33;6.60;99.90
22558;DHT22;11445;53.816;8.902;2023-04-03T09:53:05;6.60;99.90
22558;DHT22;11445;53.816;8.902;2023-04-03T09:55:32;6.70;99.90
22558;DHT22;11445;53.816;8.902;2023-04-03T09:58:24;6.70;99.90
22558;DHT22;11445;53.816;8.902;2023-04-03T10:00:57;6.70;99.90
22558;DHT22;11445;53.816;8.902;2023-04-03T10:03:25;6.80;99.90
22558;DHT22;11445;53.816;8.902;2023-04-03T10:05:53;6.70;99.90
22558;DHT22;11445;53.816;8.902;2023-04-03T10:08:27;6.80;99.90
22558;DHT22;11445;53.816;8.902;2023-04-03T10:11:14;6.80;99.90
22558;DHT22;11445;53.816;8.902;2023-04-03T10:13:54;6.70;99.90
22558;DHT22;11445;53.816;8.902;2023-04-03T10:16:29;6.70;99.90
22558;DHT22;11445;53.816;8.902;2023-04-03T10:19:11;6.70;99.90
22558;DHT22;11445;53.816;8.902;2023-04-03T10:21:46;6.70;99.90
22558;DHT22;11445;53.816;8.902;2023-04-03T10:24:20;6.70;99.90
22558;DHT22;11445;53.816;8.902;2023-04-03T10:26:55;6.80;99.90
22558;DHT22;11445;53.816;8.902;2023-04-03T10:29:34;6.80;99.90
22558;DHT22;11445;53.816;8.902;2023-04-03T10:32:17;6.80;99.90
22558;DHT22;11445;53.816;8.902;2023-04-03T10:34:56;6.90;99.90
22558;DHT22;11445;53.816;8.902;2023-04-03T10:37:34;6.90;99.90
22558;DHT22;11445;53.816;8.902;2023-04-03T10:40:10;6.90;99.90
22558;DHT22;11445;53.816;8.902;2023-04-03T10:42:46;6.90;99.90
22558;DHT22;11445;53.816;8.902;2023-04-03T10:45:21;6.90;99.90
22558;DHT22;11445;53.816;8.902;2023-04-03T10:47:58;7.00;99.90
22558;DHT22;11445;53.816;8.902;2023-04-03T10:50:36;6.90;99.90
22558;DHT22;11445;53.816;8.902;2023-04-03T10:53:11;6.90;99.90
22558;DHT22;11445;53.816;8.902;2023-04-03T10:55:46;7.00;99.90
22558;DHT22;11445;53.816;8.902;2023-04-03T10:58:24;6.90;99.90
22558;DHT22;11445;53.816;8.902;2023-04-03T11:00:54;6.90;99.90
22558;DHT22;11445;53.816;8.902;2023-04-03T11:03:31;6.90;99.90
22558;DHT22;11445;53.816;8.902;2023-04-03T11:06:01;6.90;99.90
22558;DHT22;11445;53.816;8.902;2023-04-03T11:08:34;6.90;99.90
22558;DHT22;11445;53.816;8.902;2023-04-03T11:11:06;6.80;99.90
22558;DHT22;11445;53.816;8.902;2023-04-03T11:13:38;6.80;99.90
22558;DHT22;11445;53.816;8.902;2023-04-03T11:16:08;6.90;99.90
22558;DHT22;11445;53.816;8.902;2023-04-03T11:18:41;6.80;99.90
22558;DHT22;11445;53.816;8.902;2023-04-03T11:21:14;6.80;99.90
22558;DHT22;11445;53.816;8.902;2023-04-03T11:23:44;6.90;99.90
22558;DHT22;11445;53.816;8.902;2023-04-03T11:26:14;6.90;99.90
22558;DHT22;11445;53.816;8.902;2023-04-03T11:28:41;6.90;99.90
22558;DHT22;11445;53.816;8.902;2023-04-03T11:31:16;7.00;99.90
22558;DHT22;11445;53.816;8.902;2023-04-03T11:33:55;7.00;99.90
22558;DHT22;11445;53.816;8.902;2023-04-03T11:36:27;6.90;99.90
22558;DHT22;11445;53.816;8.902;2023-04-03T11:38:58;6.90;99.90
22558;DHT22;11445;53.816;8.902;2023-04-03T11:41:29;7.00;99.90
22558;DHT22;11445;53.816;8.902;2023-04-03T11:43:59;7.00;99.90
22558;DHT22;11445;53.816;8.902;2023-04-03T11:46:51;7.00;99.90
22558;DHT22;11445;53.816;8.902;2023-04-03T11:49:51;7.00;99.90
22558;DHT22;11445;53.816;8.902;2023-04-03T11:52:54;6.90;99.90
22558;DHT22;11445;53.816;8.902;2023-04-03T11:58:27;6.90;99.90
22558;DHT22;11445;53.816;8.902;2023-04-03T12:00:57;6.90;99.90
22558;DHT22;11445;53.816;8.902;2023-04-03T12:06:52;7.00;99.90
22558;DHT22;11445;53.816;8.902;2023-04-03T12:09:33;7.00;99.90
22558;DHT22;11445;53.816;8.902;2023-04-03T12:12:21;7.00;99.90
22558;DHT22;11445;53.816;8.902;2023-04-03T12:14:49;6.90;99.90
22558;DHT22;11445;53.816;8.902;2023-04-03T12:17:22;6.90;99.90
22558;DHT22;11445;53.816;8.902;2023-04-03T12:19:51;6.90;99.90
22558;DHT22;11445;53.816;8.902;2023-04-03T12:22:21;6.90;99.90
22558;DHT22;11445;53.816;8.902;2023-04-03T12:24:49;7.00;99.90
22558;DHT22;11445;53.816;8.902;2023-04-03T12:27:24;6.90;99.90
22558;DHT22;11445;53.816;8.902;2023-04-03T12:29:59;6.90;99.90
22558;DHT22;11445;53.816;8.902;2023-04-03T12:32:40;6.90;99.90
22558;DHT22;11445;53.816;8.902;2023-04-03T12:35:20;6.90;99.90
22558;DHT22;11445;53.816;8.902;2023-04-03T12:38:14;6.90;99.90
22558;DHT22;11445;53.816;8.902;2023-04-03T12:40:48;7.00;99.90
22558;DHT22;11445;53.816;8.902;2023-04-03T12:43:34;7.10;99.90
22558;DHT22;11445;53.816;8.902;2023-04-03T12:46:07;7.10;99.90
22558;DHT22;11445;53.816;8.902;2023-04-03T12:48:39;7.10;99.90
22558;DHT22;11445;53.816;8.902;2023-04-03T12:51:14;7.20;99.90
22558;DHT22;11445;53.816;8.902;2023-04-03T12:53:44;7.20;99.90
22558;DHT22;11445;53.816;8.902;2023-04-03T12:56:23;7.40;99.90
22558;DHT22;11445;53.816;8.902;2023-04-03T12:58:52;7.50;99.90
22558;DHT22;11445;53.816;8.902;2023-04-03T13:01:21;7.50;99.90
22558;DHT22;11445;53.816;8.902;2023-04-03T13:03:52;7.60;99.90
22558;DHT22;11445;53.816;8.902;2023-04-03T13:06:21;7.60;99.90
22558;DHT22;11445;53.816;8.902;2023-04-03T13:08:51;7.60;99.90
22558;DHT22;11445;53.816;8.902;2023-04-03T13:11:20;7.70;99.90
22558;DHT22;11445;53.816;8.902;2023-04-03T13:13:58;7.70;99.90
22558;DHT22;11445;53.816;8.902;2023-04-03T13:16:26;7.70;99.90
22558;DHT22;11445;53.816;8.902;2023-04-03T13:18:55;7.70;99.90
22558;DHT22;11445;53.816;8.902;2023-04-03T13:21:24;7.70;99.90
22558;DHT22;11445;53.816;8.902;2023-04-03T13:23:56;7.80;99.90
22558;DHT22;11445;53.816;8.902;2023-04-03T13:26:25;7.90;99.90
22558;DHT22;11445;53.816;8.902;2023-04-03T13:28:54;8.00;99.90
22558;DHT22;11445;53.816;8.902;2023-04-03T13:31:25;7.90;99.90
22558;DHT22;11445;53.816;8.902;2023-04-03T13:33:56;7.90;99.90
22558;DHT22;11445;53.816;8.902;2023-04-03T13:36:27;7.90;99.90
22558;DHT22;11445;53.816;8.902;2023-04-03T13:39:03;7.80;99.90
22558;DHT22;11445;53.816;8.902;2023-04-03T13:41:33;7.80;99.90
22558;DHT22;11445;53.816;8.902;2023-04-03T13:44:17;7.80;99.90
22558;DHT22;11445;53.816;8.902;2023-04-03T13:46:45;7.70;99.90
22558;DHT22;11445;53.816;8.902;2023-04-03T13:49:20;7.70;99.90
22558;DHT22;11445;53.816;8.902;2023-04-03T13:51:47;7.60;99.90
22558;DHT22;11445;53.816;8.902;2023-04-03T13:54:21;7.60;99.90
22558;DHT22;11445;53.816;8.902;2023-04-03T13:56:54;7.50;99.90
22558;DHT22;11445;53.816;8.902;2023-04-03T13:59:24;7.50;99.90
22558;DHT22;11445;53.816;8.902;2023-04-03T14:01:54;7.40;99.90
22558;DHT22;11445;53.816;8.902;2023-04-03T14:04:23;7.40;99.90
22558;DHT22;11445;53.816;8.902;2023-04-03T14:06:51;7.40;99.90
22558;DHT22;11445;53.816;8.902;2023-04-03T14:09:21;7.40;99.90
22558;DHT22;11445;53.816;8.902;2023-04-03T14:11:50;7.40;99.90
22558;DHT22;11445;53.816;8.902;2023-04-03T14:14:21;7.40;99.90
22558;DHT22;11445;53.816;8.902;2023-04-03T14:16:52;7.50;99.90
22558;DHT22;11445;53.816;8.902;2023-04-03T14:19:23;7.50;99.90
22558;DHT22;11445;53.816;8.902;2023-04-03T14:21:51;7.50;99.90
22558;DHT22;11445;53.816;8.902;2023-04-03T14:24:20;7.50;99.90
22558;DHT22;11445;53.816;8.902;2023-04-03T14:26:48;7.60;99.90
22558;DHT22;11445;53.816;8.902;2023-04-03T14:29:18;7.60;99.90
22558;DHT22;11445;53.816;8.902;2023-04-03T14:31:47;7.60;99.90
22558;DHT22;11445;53.816;8.902;2023-04-03T14:34:15;7.50;99.90
22558;DHT22;11445;53.816;8.902;2023-04-03T14:36:44;7.60;99.90
22558;DHT22;11445;53.816;8.902;2023-04-03T14:39:16;7.60;99.90
22558;DHT22;11445;53.816;8.902;2023-04-03T14:41:46;7.60;99.90
22558;DHT22;11445;53.816;8.902;2023-04-03T14:44:13;7.50;99.90
22558;DHT22;11445;53.816;8.902;2023-04-03T14:46:42;7.50;99.90
22558;DHT22;11445;53.816;8.902;2023-04-03T14:49:14;7.50;99.90
22558;DHT22;11445;53.816;8.902;2023-04-03T14:51:42;7.40;99.90
22558;DHT22;11445;53.816;8.902;2023-04-03T14:54:13;7.40;99.90
22558;DHT22;11445;53.816;8.902;2023-04-03T14:56:40;7.30;99.90
22558;DHT22;11445;53.816;8.902;2023-04-03T14:59:11;7.30;99.90
22558;DHT22;11445;53.816;8.902;2023-04-03T15:01:38;7.40;99.90
22558;DHT22;11445;53.816;8.902;2023-04-03T15:04:10;7.70;99.90
22558;DHT22;11445;53.816;8.902;2023-04-03T15:06:38;7.80;99.90
22558;DHT22;11445;53.816;8.902;2023-04-03T15:09:08;7.90;99.90
22558;DHT22;11445;53.816;8.902;2023-04-03T15:11:37;8.00;99.90
22558;DHT22;11445;53.816;8.902;2023-04-03T15:14:04;8.00;99.90
22558;DHT22;11445;53.816;8.902;2023-04-03T15:16:33;8.00;99.90
22558;DHT22;11445;53.816;8.902;2023-04-03T15:19:00;7.90;99.90
22558;DHT22;11445;53.816;8.902;2023-04-03T15:21:27;7.80;99.90
22558;DHT22;11445;53.816;8.902;2023-04-03T15:23:54;7.70;99.90
22558;DHT22;11445;53.816;8.902;2023-04-03T15:26:21;7.70;99.90
22558;DHT22;11445;53.816;8.902;2023-04-03T15:28:48;7.60;99.90
22558;DHT22;11445;53.816;8.902;2023-04-03T15:31:15;7.60;99.90
22558;DHT22;11445;53.816;8.902;2023-04-03T15:33:44;7.50;99.90
22558;DHT22;11445;53.816;8.902;2023-04-03T15:36:11;7.50;99.90
22558;DHT22;11445;53.816;8.902;2023-04-03T15:38:38;7.40;99.90
22558;DHT22;11445;53.816;8.902;2023-04-03T15:41:05;7.40;99.90
22558;DHT22;11445;53.816;8.902;2023-04-03T15:43:32;7.40;99.90
22558;DHT22;11445;53.816;8.902;2023-04-03T15:46:01;7.30;99.90
22558;DHT22;11445;53.816;8.902;2023-04-03T15:48:28;7.30;99.90
22558;DHT22;11445;53.816;8.902;2023-04-03T15:50:57;7.40;99.90
22558;DHT22;11445;53.816;8.902;2023-04-03T15:53:24;7.40;99.90
22558;DHT22;11445;53.816;8.902;2023-04-03T15:55:51;7.50;99.90
22558;DHT22;11445;53.816;8.902;2023-04-03T15:58:18;7.50;99.90
22558;DHT22;11445;53.816;8.902;2023-04-03T16:00:45;7.60;99.90
22558;DHT22;11445;53.816;8.902;2023-04-03T16:03:15;7.70;99.90
22558;DHT22;11445;53.816;8.902;2023-04-03T16:05:43;7.80;99.90
22558;DHT22;11445;53.816;8.902;2023-04-03T16:08:11;7.80;99.90
22558;DHT22;11445;53.816;8.902;2023-04-03T16:10:39;7.80;99.90
22558;DHT22;11445;53.816;8.902;2023-04-03T16:13:06;7.90;99.90